Terminal Aerodrome Forecast
Issued by NWS Knoxville/Tri Cities, TN

Home | Current Version | Previous Version | Text Only | Print | Product List | Glossary On
Versions: 1 2 3 4 5 6 7 8 9 10 11 12 13 14 15 16 17 18 19
000
FTUS44 KMRX 231122
TAFTRI
TAF
KTRI 231122Z 2312/2412 VRB03KT P6SM VCSH SCT003 OVC015
     FM231430 25006KT P6SM SCT020
     FM231700 25010G20KT P6SM SCT040
     FM240000 25003KT P6SM SCT040 BKN250
     FM240800 00000KT 4SM BR BKN020=

USA.gov is the U.S. government's official web portal to all federal, state and local government web resources and services.